Time;durP1;ratioP1;P1;durP2;ratioP2;P2;SDS_P1;SDS_P2;PMS_P1;PMS_P2;Temp;Humidity;BMP_temperature;BMP_pressure;BME280_temperature;BME280_humidity;BME280_pressure;Samples;Min_cycle;Max_cycle;Signal;HPM_P1;HPM_P2
2021/12/12 00:01:20;;;;;;;63.22;28.65;;;;;;;;;;2080490;28;20037;-71
2021/12/12 00:02:56;;;;;;;63.22;30.45;;;;;;;;;;2078102;28;20503;-70
2021/12/12 00:04:16;;;;;;;61.67;27.17;;;;;;;;;;2079843;28;20876;-70
2021/12/12 00:05:41;;;;;;;55.17;25.95;;;;;;;;;;2080555;28;20033;-71
2021/12/12 00:07:01;;;;;;;64.00;27.77;;;;;;;;;;2082705;28;20496;-70
2021/12/12 00:08:21;;;;;;;57.00;28.80;;;;;;;;;;2081467;28;20387;-69
2021/12/12 00:09:45;;;;;;;64.95;30.15;;;;;;;;;;2081191;28;20025;-69
2021/12/12 00:11:03;;;;;;;;;;;;;;;;;;2082430;28;20025;-69
2021/12/12 00:12:28;;;;;;;57.17;26.55;;;;;;;;;;2082050;28;19984;-69
2021/12/12 00:13:49;;;;;;;55.92;27.05;;;;;;;;;;2081841;28;20089;-69
2021/12/12 00:15:08;;;;;;;56.50;26.98;;;;;;;;;;2081615;28;20041;-69
2021/12/12 00:16:27;;;;;;;60.67;27.77;;;;;;;;;;2081604;28;20500;-69
2021/12/12 00:17:47;;;;;;;58.42;28.55;;;;;;;;;;2080958;28;20033;-69
2021/12/12 00:19:06;;;;;;;56.03;26.42;;;;;;;;;;2077644;28;20385;-70
2021/12/12 00:20:28;;;;;;;54.30;26.73;;;;;;;;;;2076712;28;20033;-70
2021/12/12 00:21:49;;;;;;;56.08;26.33;;;;;;;;;;2080850;28;20038;-70
2021/12/12 00:23:09;;;;;;;60.28;27.73;;;;;;;;;;2080287;28;20026;-70
2021/12/12 00:24:28;;;;;;;51.50;27.23;;;;;;;;;;2080210;28;20065;-70
2021/12/12 00:25:49;;;;;;;62.42;28.60;;;;;;;;;;2081450;28;20025;-70
2021/12/12 00:27:08;;;;;;;56.50;28.52;;;;;;;;;;2084148;28;20500;-70
2021/12/12 00:28:27;;;;;;;61.05;27.30;;;;;;;;;;2081903;28;20025;-70
2021/12/12 00:29:47;;;;;;;62.50;29.17;;;;;;;;;;2080364;28;20041;-69
2021/12/12 00:31:10;;;;;;;56.00;27.70;;;;;;;;;;2080998;28;20013;-69
2021/12/12 00:32:31;;;;;;;58.85;27.70;;;;;;;;;;2080402;28;20029;-70
2021/12/12 00:33:53;;;;;;;65.03;29.27;;;;;;;;;;2080422;28;20060;-70
2021/12/12 00:35:14;;;;;;;53.03;26.92;;;;;;;;;;2079566;28;21076;-72
2021/12/12 00:36:34;;;;;;;59.88;29.92;;;;;;;;;;2080894;28;20073;-70
2021/12/12 00:37:59;;;;;;;61.72;29.50;;;;;;;;;;2079454;28;20029;-71
2021/12/12 00:39:20;;;;;;;66.72;31.77;;;;;;;;;;2078696;28;20034;-71
2021/12/12 00:40:43;;;;;;;66.35;31.13;;;;;;;;;;2087908;28;20029;-71
2021/12/12 00:42:05;;;;;;;62.38;31.23;;;;;;;;;;2083308;28;20038;-71
2021/12/12 00:43:44;;;;;;;59.13;30.13;;;;;;;;;;2079656;28;20041;-71
2021/12/12 00:45:06;;;;;;;63.08;30.85;;;;;;;;;;2079497;28;20132;-70
2021/12/12 00:46:25;;;;;;;65.22;31.92;;;;;;;;;;2080239;28;20021;-70
2021/12/12 00:47:45;;;;;;;61.58;31.40;;;;;;;;;;2081506;28;20074;-71
2021/12/12 00:49:05;;;;;;;68.03;32.95;;;;;;;;;;2079543;28;20049;-70
2021/12/12 00:50:44;;;;;;;69.25;32.33;;;;;;;;;;2079822;28;20419;-71
2021/12/12 00:52:05;;;;;;;66.72;32.33;;;;;;;;;;2081299;28;20037;-70
2021/12/12 00:53:24;;;;;;;60.63;30.95;;;;;;;;;;2081899;28;20037;-69
2021/12/12 00:54:44;;;;;;;62.55;31.92;;;;;;;;;;2081742;28;20472;-69
2021/12/12 00:56:03;;;;;;;67.00;32.30;;;;;;;;;;2080077;28;20544;-69
2021/12/12 00:57:22;;;;;;;62.53;32.50;;;;;;;;;;2080945;28;20041;-69
2021/12/12 00:58:41;;;;;;;63.67;32.47;;;;;;;;;;2081627;28;20061;-70
2021/12/12 01:00:00;;;;;;;64.72;32.38;;;;;;;;;;2080659;28;20045;-71
2021/12/12 01:01:30;;;;;;;63.65;32.25;;;;;;;;;;2080827;28;20037;-69
2021/12/12 01:02:50;;;;;;;66.72;32.35;;;;;;;;;;2080821;28;20041;-69
2021/12/12 01:04:11;;;;;;;66.50;32.88;;;;;;;;;;2080503;28;20025;-69
2021/12/12 01:05:30;;;;;;;68.20;34.40;;;;;;;;;;2075461;28;20144;-69
2021/12/12 01:06:50;;;;;;;63.53;33.25;;;;;;;;;;2078091;28;20052;-69
2021/12/12 01:08:10;;;;;;;58.20;29.75;;;;;;;;;;2080199;28;20488;-69
2021/12/12 01:09:33;;;;;;;55.80;31.23;;;;;;;;;;2080200;28;20025;-69
2021/12/12 01:10:55;;;;;;;64.72;31.88;;;;;;;;;;2080004;28;20037;-69
2021/12/12 01:12:16;;;;;;;62.35;31.83;;;;;;;;;;2079420;28;20100;-69
2021/12/12 01:13:36;;;;;;;61.13;30.70;;;;;;;;;;2086430;28;20068;-70
2021/12/12 01:14:57;;;;;;;58.30;30.02;;;;;;;;;;2084651;28;20022;-69
2021/12/12 01:16:30;;;;;;;65.75;32.60;;;;;;;;;;2079407;28;20586;-69
2021/12/12 01:17:51;;;;;;;56.95;30.40;;;;;;;;;;2079796;28;20045;-69
2021/12/12 01:19:13;;;;;;;58.33;30.15;;;;;;;;;;2081804;28;20104;-69
2021/12/12 01:20:40;;;;;;;63.15;31.30;;;;;;;;;;2079924;28;20037;-69
2021/12/12 01:22:02;;;;;;;65.88;32.35;;;;;;;;;;2076780;28;20033;-69
2021/12/12 01:23:24;;;;;;;57.88;28.77;;;;;;;;;;2079583;28;20104;-69
2021/12/12 01:24:46;;;;;;;61.90;29.90;;;;;;;;;;2081117;28;20060;-69
2021/12/12 01:26:06;;;;;;;61.58;30.67;;;;;;;;;;2081033;28;20033;-70
2021/12/12 01:27:25;;;;;;;56.97;29.15;;;;;;;;;;2087187;28;20441;-71
2021/12/12 01:28:46;;;;;;;57.80;29.88;;;;;;;;;;2078446;28;20025;-70
2021/12/12 01:30:08;;;;;;;59.40;29.90;;;;;;;;;;2080314;28;20034;-70
2021/12/12 01:31:32;;;;;;;58.03;29.67;;;;;;;;;;2080010;28;20029;-70
2021/12/12 01:32:51;;;;;;;61.80;28.92;;;;;;;;;;2078954;28;20033;-69
2021/12/12 01:34:13;;;;;;;62.88;29.95;;;;;;;;;;2079443;28;20037;-71
2021/12/12 01:35:33;;;;;;;59.80;30.25;;;;;;;;;;2080150;28;20037;-70
2021/12/12 01:39:57;;;;;;;52.70;27.55;;;;;;;;;;2080217;28;20100;-70
2021/12/12 01:41:17;;;;;;;50.72;28.25;;;;;;;;;;2076881;28;20033;-70
2021/12/12 01:42:38;;;;;;;59.05;28.63;;;;;;;;;;2075195;28;20057;-70
2021/12/12 01:43:59;;;;;;;56.05;29.08;;;;;;;;;;2073784;28;20026;-72
2021/12/12 01:45:21;;;;;;;53.30;27.88;;;;;;;;;;2082671;28;20049;-70
2021/12/12 01:46:45;;;;;;;56.75;27.88;;;;;;;;;;2082990;28;20033;-70
2021/12/12 01:48:13;;;;;;;57.13;28.55;;;;;;;;;;2080812;28;20487;-70
2021/12/12 01:49:33;;;;;;;54.13;26.48;;;;;;;;;;2080161;28;20065;-71
2021/12/12 01:50:54;;;;;;;56.53;28.58;;;;;;;;;;2078437;28;20087;-70
2021/12/12 01:52:16;;;;;;;57.38;27.13;;;;;;;;;;2080182;28;20128;-70
2021/12/12 01:53:37;;;;;;;57.40;28.13;;;;;;;;;;2081171;28;20030;-70
2021/12/12 01:55:00;;;;;;;60.05;29.27;;;;;;;;;;2079538;28;20116;-70
2021/12/12 01:56:20;;;;;;;;;;;;;;;;;;2079094;28;20037;-70
2021/12/12 01:57:39;;;;;;;56.42;28.00;;;;;;;;;;2080242;28;19917;-70
2021/12/12 01:59:01;;;;;;;58.58;29.35;;;;;;;;;;2079671;28;20033;-70
2021/12/12 02:00:32;;;;;;;62.88;28.92;;;;;;;;;;2078926;28;20029;-70
2021/12/12 02:01:55;;;;;;;60.45;30.15;;;;;;;;;;2086041;28;20029;-70
2021/12/12 02:03:16;;;;;;;59.95;29.15;;;;;;;;;;2083534;28;20029;-70
2021/12/12 02:04:37;;;;;;;60.47;29.17;;;;;;;;;;2080497;28;20500;-70
2021/12/12 02:05:57;;;;;;;63.70;30.10;;;;;;;;;;2080464;28;20021;-70
2021/12/12 02:07:18;;;;;;;59.00;29.33;;;;;;;;;;2080514;28;20022;-70
2021/12/12 02:08:38;;;;;;;57.05;28.80;;;;;;;;;;2077600;28;20112;-70
2021/12/12 02:10:01;;;;;;;55.08;28.50;;;;;;;;;;2081321;28;20029;-70
2021/12/12 02:11:24;;;;;;;56.83;27.23;;;;;;;;;;2087081;28;20029;-70
2021/12/12 02:12:43;;;;;;;59.42;28.65;;;;;;;;;;2086673;28;20033;-70
2021/12/12 02:14:09;;;;;;;57.85;28.20;;;;;;;;;;2080610;28;20037;-71
2021/12/12 02:15:30;;;;;;;62.15;29.65;;;;;;;;;;2078367;28;20026;-71
2021/12/12 02:16:59;;;;;;;58.83;28.92;;;;;;;;;;2076890;28;20076;-70
2021/12/12 02:18:21;;;;;;;59.88;28.92;;;;;;;;;;2080234;28;20034;-70
2021/12/12 02:20:01;;;;;;;54.95;27.95;;;;;;;;;;2080777;28;20037;-70
2021/12/12 02:21:27;;;;;;;60.83;28.05;;;;;;;;;;2080723;28;20033;-70
2021/12/12 02:35:27;;;;;;;56.95;27.00;;;;;;;;;;2082032;28;20081;-70
2021/12/12 02:36:46;;;;;;;57.95;28.05;;;;;;;;;;2082266;28;20108;-70
2021/12/12 02:38:06;;;;;;;60.03;27.60;;;;;;;;;;2080327;28;20037;-70
2021/12/12 02:39:25;;;;;;;59.13;29.20;;;;;;;;;;2082565;28;20029;-70
2021/12/12 02:40:46;;;;;;;55.47;28.25;;;;;;;;;;2081702;28;20033;-70
2021/12/12 02:42:07;;;;;;;55.30;28.05;;;;;;;;;;2086152;28;20052;-70
2021/12/12 02:43:27;;;;;;;62.15;28.63;;;;;;;;;;2083152;28;20029;-70
2021/12/12 02:44:48;;;;;;;57.88;27.27;;;;;;;;;;2079820;28;20517;-71
2021/12/12 02:46:08;;;;;;;57.55;26.85;;;;;;;;;;2080706;28;20419;-71
2021/12/12 02:47:34;;;;;;;58.85;27.77;;;;;;;;;;2079886;28;20104;-71
2021/12/12 02:48:58;;;;;;;60.58;28.13;;;;;;;;;;2080591;28;20488;-71
2021/12/12 02:50:20;;;;;;;59.15;27.48;;;;;;;;;;2080499;28;20472;-70
2021/12/12 02:51:39;;;;;;;54.83;26.67;;;;;;;;;;2085932;28;20017;-71
2021/12/12 02:53:02;;;;;;;56.05;27.33;;;;;;;;;;2084043;28;20557;-71
2021/12/12 02:54:21;;;;;;;60.53;26.95;;;;;;;;;;2078810;28;20485;-71
2021/12/12 02:55:45;;;;;;;56.90;26.63;;;;;;;;;;2081174;28;20026;-71
2021/12/12 02:57:05;;;;;;;51.63;26.45;;;;;;;;;;2087334;28;20052;-71
2021/12/12 02:58:25;;;;;;;56.40;26.98;;;;;;;;;;2083849;28;20495;-71
2021/12/12 02:59:48;;;;;;;64.47;28.15;;;;;;;;;;2079925;28;20714;-71
2021/12/12 03:01:10;;;;;;;54.17;27.65;;;;;;;;;;2081474;28;20025;-71
2021/12/12 03:02:30;;;;;;;58.80;27.98;;;;;;;;;;2081185;28;20029;-71
2021/12/12 03:03:49;;;;;;;55.00;27.63;;;;;;;;;;2077959;28;20531;-71
2021/12/12 03:05:08;;;;;;;57.08;26.67;;;;;;;;;;2079266;28;20033;-71
2021/12/12 03:06:30;;;;;;;62.10;27.25;;;;;;;;;;2081220;28;20060;-72
2021/12/12 03:07:49;;;;;;;60.15;28.30;;;;;;;;;;2080781;28;20452;-71
2021/12/12 03:09:10;;;;;;;61.05;29.27;;;;;;;;;;2078190;28;20120;-71
2021/12/12 03:10:32;;;;;;;61.80;29.38;;;;;;;;;;2080885;28;20026;-70
2021/12/12 03:11:54;;;;;;;58.63;27.33;;;;;;;;;;2076535;28;20029;-71
2021/12/12 03:13:14;;;;;;;60.33;27.60;;;;;;;;;;2082068;28;20464;-70
2021/12/12 03:14:34;;;;;;;54.75;27.00;;;;;;;;;;2081172;28;20041;-70
2021/12/12 03:15:53;;;;;;;60.33;28.35;;;;;;;;;;2081865;28;20041;-71
2021/12/12 03:17:17;;;;;;;58.60;26.75;;;;;;;;;;2082917;28;20022;-70
2021/12/12 03:18:40;;;;;;;54.00;25.75;;;;;;;;;;2082407;28;20123;-70
2021/12/12 03:20:04;;;;;;;55.53;25.80;;;;;;;;;;2080462;28;20515;-70
2021/12/12 03:21:30;;;;;;;61.33;28.20;;;;;;;;;;2081711;28;20033;-70
2021/12/12 03:23:01;;;;;;;61.15;26.70;;;;;;;;;;2086208;28;20040;-70
2021/12/12 03:24:22;;;;;;;58.80;27.30;;;;;;;;;;2083119;28;20029;-70
2021/12/12 03:25:43;;;;;;;65.15;28.40;;;;;;;;;;2082398;28;20025;-70
2021/12/12 03:27:03;;;;;;;60.10;27.80;;;;;;;;;;2081323;28;20125;-70
2021/12/12 03:28:24;;;;;;;64.18;28.27;;;;;;;;;;2081818;28;20490;-70
2021/12/12 03:29:43;;;;;;;64.68;28.20;;;;;;;;;;2082137;28;20037;-71
2021/12/12 03:31:04;;;;;;;69.60;28.70;;;;;;;;;;2088206;28;20025;-70
2021/12/12 03:32:23;;;;;;;62.33;28.40;;;;;;;;;;2084414;28;20029;-70
2021/12/12 03:33:43;;;;;;;65.43;28.35;;;;;;;;;;2082933;28;20042;-71
2021/12/12 03:35:03;;;;;;;67.13;29.15;;;;;;;;;;2082295;28;21681;-71
2021/12/12 03:36:23;;;;;;;66.80;28.40;;;;;;;;;;2081043;28;20041;-71
2021/12/12 03:37:43;;;;;;;66.80;29.35;;;;;;;;;;2081855;28;20030;-71
2021/12/12 03:39:09;;;;;;;59.95;27.98;;;;;;;;;;2081889;28;20522;-71
2021/12/12 03:40:31;;;;;;;65.65;28.17;;;;;;;;;;2081440;28;20045;-71
2021/12/12 03:41:51;;;;;;;65.03;29.25;;;;;;;;;;2083972;28;20034;-71
2021/12/12 03:43:10;;;;;;;63.35;28.50;;;;;;;;;;2083672;28;20030;-71
2021/12/12 03:44:31;;;;;;;67.20;28.77;;;;;;;;;;2080777;28;20029;-71
2021/12/12 03:45:50;;;;;;;63.40;28.02;;;;;;;;;;2088395;28;20021;-71
2021/12/12 03:47:16;;;;;;;63.67;28.35;;;;;;;;;;2084870;28;20455;-71
2021/12/12 03:48:36;;;;;;;60.40;28.80;;;;;;;;;;2080533;28;20034;-71
2021/12/12 03:49:56;;;;;;;67.47;29.08;;;;;;;;;;2080372;28;20116;-71
2021/12/12 03:51:16;;;;;;;64.30;29.60;;;;;;;;;;2081406;28;20037;-71
2021/12/12 03:52:35;;;;;;;71.90;30.10;;;;;;;;;;2080535;28;20022;-70
2021/12/12 03:53:54;;;;;;;60.17;28.20;;;;;;;;;;2081103;28;20029;-71
2021/12/12 03:55:14;;;;;;;69.22;29.40;;;;;;;;;;2081566;28;20491;-71
2021/12/12 03:56:33;;;;;;;75.32;29.77;;;;;;;;;;2086183;28;20038;-71
2021/12/12 03:57:53;;;;;;;72.88;30.35;;;;;;;;;;2082779;28;20101;-71
2021/12/12 03:59:13;;;;;;;73.45;31.02;;;;;;;;;;2080438;28;20037;-71
2021/12/12 04:00:38;;;;;;;67.57;30.48;;;;;;;;;;2079934;28;20077;-71
2021/12/12 04:01:58;;;;;;;70.20;30.20;;;;;;;;;;2088658;28;20499;-71
2021/12/12 04:03:17;;;;;;;77.47;30.77;;;;;;;;;;2084187;28;20045;-70
2021/12/12 04:04:38;;;;;;;73.03;30.40;;;;;;;;;;2080252;28;20104;-70
2021/12/12 04:06:00;;;;;;;66.32;29.63;;;;;;;;;;2080355;28;20026;-70
2021/12/12 04:07:24;;;;;;;70.32;30.40;;;;;;;;;;2080556;28;20026;-71
2021/12/12 04:08:44;;;;;;;70.47;29.40;;;;;;;;;;2079755;28;20037;-70
2021/12/12 04:10:04;;;;;;;67.07;29.30;;;;;;;;;;2080439;28;20033;-70
2021/12/12 04:11:31;;;;;;;71.65;29.05;;;;;;;;;;2075727;28;20029;-70
2021/12/12 04:12:51;;;;;;;61.35;27.77;;;;;;;;;;2080476;28;20061;-70
2021/12/12 04:14:11;;;;;;;64.38;28.80;;;;;;;;;;2081203;28;20065;-70
2021/12/12 04:15:30;;;;;;;73.65;28.77;;;;;;;;;;2081538;28;20496;-70
2021/12/12 04:16:51;;;;;;;66.13;29.05;;;;;;;;;;2080149;28;20017;-70
2021/12/12 04:18:10;;;;;;;70.35;29.85;;;;;;;;;;2081238;28;20559;-70
2021/12/12 04:19:29;;;;;;;63.35;28.33;;;;;;;;;;2080108;28;20041;-70
2021/12/12 04:20:48;;;;;;;64.07;28.20;;;;;;;;;;2081232;28;20033;-70
2021/12/12 04:22:08;;;;;;;58.85;27.05;;;;;;;;;;2081386;28;20029;-70
2021/12/12 04:23:27;;;;;;;63.25;27.70;;;;;;;;;;2080945;28;20022;-70
2021/12/12 04:24:48;;;;;;;62.08;27.88;;;;;;;;;;2081023;28;20025;-70
2021/12/12 04:26:30;;;;;;;62.55;27.20;;;;;;;;;;2081700;28;20423;-70
2021/12/12 04:27:49;;;;;;;54.47;26.10;;;;;;;;;;2080960;28;20514;-70
2021/12/12 04:29:10;;;;;;;59.33;27.08;;;;;;;;;;2080538;28;20033;-70
2021/12/12 04:30:30;;;;;;;56.25;27.08;;;;;;;;;;2081674;28;20029;-70
2021/12/12 04:31:52;;;;;;;64.03;27.20;;;;;;;;;;2081345;28;20021;-70
2021/12/12 04:33:11;;;;;;;57.13;26.67;;;;;;;;;;2080682;28;20033;-70
2021/12/12 04:34:32;;;;;;;61.70;26.92;;;;;;;;;;2080753;28;20091;-70
2021/12/12 04:35:51;;;;;;;61.65;26.83;;;;;;;;;;2081725;28;20499;-70
2021/12/12 04:37:10;;;;;;;63.15;27.77;;;;;;;;;;2081617;28;20511;-70
2021/12/12 04:38:29;;;;;;;60.97;26.70;;;;;;;;;;2081691;28;20079;-70
2021/12/12 04:39:52;;;;;;;67.57;28.65;;;;;;;;;;2080228;28;20399;-70
2021/12/12 04:41:11;;;;;;;65.88;27.45;;;;;;;;;;2080346;28;20505;-70
2021/12/12 04:42:33;;;;;;;62.53;27.65;;;;;;;;;;2080985;28;20489;-69
2021/12/12 04:43:51;;;;;;;64.78;28.25;;;;;;;;;;2080420;28;20535;-70
2021/12/12 04:45:20;;;;;;;61.90;27.60;;;;;;;;;;2081407;28;20033;-70
2021/12/12 04:50:20;;;;;;;60.65;25.13;;;;;;;;;;2081160;28;20022;-70
2021/12/12 04:51:45;;;;;;;58.10;26.00;;;;;;;;;;2082042;28;20038;-70
2021/12/12 04:53:24;;;;;;;60.75;26.13;;;;;;;;;;2081208;28;20484;-70
2021/12/12 04:54:45;;;;;;;64.25;27.10;;;;;;;;;;2080822;28;20042;-70
2021/12/12 04:56:27;;;;;;;71.72;27.50;;;;;;;;;;2087576;28;20449;-69
2021/12/12 04:57:56;;;;;;;67.53;26.27;;;;;;;;;;2080334;28;20033;-70
2021/12/12 04:59:19;;;;;;;58.83;26.52;;;;;;;;;;2081141;28;20128;-69
2021/12/12 05:00:40;;;;;;;64.97;26.85;;;;;;;;;;2079787;28;20033;-70
2021/12/12 05:02:07;;;;;;;60.60;26.63;;;;;;;;;;2080963;28;20037;-70
2021/12/12 05:03:26;;;;;;;63.13;27.58;;;;;;;;;;2080665;28;20322;-70
2021/12/12 05:04:59;;;;;;;63.90;28.02;;;;;;;;;;2078749;28;21334;-70
2021/12/12 05:06:24;;;;;;;58.40;26.70;;;;;;;;;;2079528;28;20030;-70
2021/12/12 05:07:47;;;;;;;64.40;27.67;;;;;;;;;;2079903;28;20104;-70
2021/12/12 05:09:06;;;;;;;;;;;;;;;;;;2078238;28;20121;-70
2021/12/12 05:10:35;;;;;;;61.28;26.48;;;;;;;;;;2080165;28;20383;-70
2021/12/12 05:12:16;;;;;;;59.30;25.17;;;;;;;;;;2079332;28;20053;-70
2021/12/12 05:13:40;;;;;;;56.30;25.33;;;;;;;;;;2080304;28;20033;-71
2021/12/12 05:15:01;;;;;;;63.78;25.90;;;;;;;;;;2080338;28;20037;-70
2021/12/12 05:16:23;;;;;;;56.83;25.58;;;;;;;;;;2080425;28;20033;-70
2021/12/12 05:17:46;;;;;;;56.92;27.02;;;;;;;;;;2079894;28;20029;-70
2021/12/12 05:19:12;;;;;;;58.72;25.95;;;;;;;;;;2079627;28;20029;-70
2021/12/12 05:20:33;;;;;;;58.00;25.95;;;;;;;;;;2080337;28;20041;-72
2021/12/12 05:21:55;;;;;;;61.70;26.20;;;;;;;;;;2079700;28;20034;-70
2021/12/12 05:23:15;;;;;;;54.28;25.63;;;;;;;;;;2080457;28;20495;-70
2021/12/12 05:24:36;;;;;;;60.55;26.83;;;;;;;;;;2079940;28;20069;-70
2021/12/12 05:25:54;;;;;;;57.28;26.15;;;;;;;;;;2079182;28;20022;-70
2021/12/12 05:27:17;;;;;;;60.05;27.10;;;;;;;;;;2080773;28;20029;-70
2021/12/12 05:28:39;;;;;;;54.83;25.70;;;;;;;;;;2079904;28;20468;-70
2021/12/12 05:30:00;;;;;;;58.25;26.77;;;;;;;;;;2078536;28;20573;-70
2021/12/12 05:31:20;;;;;;;59.65;25.45;;;;;;;;;;2079063;28;20026;-70
2021/12/12 05:32:39;;;;;;;54.38;25.73;;;;;;;;;;2080518;28;20030;-69
2021/12/12 05:33:58;;;;;;;54.22;25.73;;;;;;;;;;2079906;28;20033;-69
2021/12/12 05:35:21;;;;;;;64.30;26.52;;;;;;;;;;2078697;28;20573;-70
2021/12/12 05:36:40;;;;;;;55.28;25.08;;;;;;;;;;2080416;28;20487;-70
2021/12/12 05:38:00;;;;;;;58.13;26.20;;;;;;;;;;2080644;28;20068;-70
2021/12/12 05:39:20;;;;;;;57.08;26.05;;;;;;;;;;2079506;28;21143;-70
2021/12/12 05:40:41;;;;;;;60.05;25.58;;;;;;;;;;2079617;28;20112;-70
2021/12/12 05:42:00;;;;;;;55.72;26.30;;;;;;;;;;2088299;28;20045;-70
2021/12/12 05:43:19;;;;;;;62.17;27.00;;;;;;;;;;2085143;28;20025;-70
2021/12/12 05:44:38;;;;;;;52.30;25.15;;;;;;;;;;2081531;28;20133;-69
2021/12/12 05:45:57;;;;;;;57.65;26.52;;;;;;;;;;2080901;28;20033;-69
2021/12/12 05:47:17;;;;;;;62.92;27.75;;;;;;;;;;2081257;28;20391;-69
2021/12/12 05:48:36;;;;;;;59.58;26.35;;;;;;;;;;2079745;28;20134;-70
2021/12/12 05:49:56;;;;;;;53.97;25.52;;;;;;;;;;2080079;28;20045;-70
2021/12/12 05:51:17;;;;;;;57.55;26.45;;;;;;;;;;2078763;28;20026;-70
2021/12/12 05:52:36;;;;;;;57.08;25.13;;;;;;;;;;2080498;28;20125;-69
2021/12/12 05:53:55;;;;;;;56.28;27.05;;;;;;;;;;2080981;28;20026;-69
2021/12/12 05:55:15;;;;;;;51.72;24.92;;;;;;;;;;2081073;28;20409;-69
2021/12/12 05:56:35;;;;;;;56.45;26.95;;;;;;;;;;2081024;28;20038;-70
2021/12/12 05:57:56;;;;;;;57.28;26.67;;;;;;;;;;2080923;28;20030;-68
2021/12/12 05:59:15;;;;;;;52.63;25.10;;;;;;;;;;2080179;28;20033;-69
2021/12/12 06:00:40;;;;;;;50.65;25.40;;;;;;;;;;2080726;28;20037;-69
2021/12/12 06:02:03;;;;;;;49.65;24.92;;;;;;;;;;2079685;28;20160;-70
2021/12/12 06:03:24;;;;;;;60.47;27.45;;;;;;;;;;2076508;28;20041;-69
2021/12/12 06:04:43;;;;;;;53.10;25.33;;;;;;;;;;2079682;28;20034;-69
2021/12/12 06:06:04;;;;;;;55.15;26.05;;;;;;;;;;2080780;28;20026;-69
2021/12/12 06:07:24;;;;;;;60.78;26.60;;;;;;;;;;2077180;28;20108;-69
2021/12/12 06:08:44;;;;;;;57.38;27.35;;;;;;;;;;2079900;28;20029;-69
2021/12/12 06:10:06;;;;;;;52.90;25.83;;;;;;;;;;2080397;28;20025;-69
2021/12/12 06:11:26;;;;;;;59.75;25.80;;;;;;;;;;2080849;28;20029;-69
2021/12/12 06:12:45;;;;;;;59.40;25.88;;;;;;;;;;2080321;28;20057;-69
2021/12/12 06:14:05;;;;;;;52.42;25.48;;;;;;;;;;2081503;28;20029;-70
2021/12/12 06:15:27;;;;;;;57.70;26.35;;;;;;;;;;2094053;22;20029;-77
2021/12/12 06:16:46;;;;;;;56.70;27.58;;;;;;;;;;2078153;28;20405;-78
2021/12/12 06:18:06;;;;;;;51.55;25.10;;;;;;;;;;2072794;28;20030;-79
2021/12/12 06:19:26;;;;;;;52.30;24.88;;;;;;;;;;2077944;28;20033;-78
2021/12/12 06:20:45;;;;;;;55.88;25.35;;;;;;;;;;2072815;28;20033;-79
2021/12/12 06:22:05;;;;;;;52.95;24.85;;;;;;;;;;2068729;28;20029;-77
2021/12/12 06:23:25;;;;;;;55.28;26.77;;;;;;;;;;2067080;28;20105;-78
2021/12/12 06:24:44;;;;;;;52.55;24.73;;;;;;;;;;2064033;28;20030;-77
2021/12/12 06:26:02;;;;;;;54.60;25.65;;;;;;;;;;2060119;28;20097;-78
2021/12/12 06:27:22;;;;;;;57.30;26.27;;;;;;;;;;2060157;28;20027;-79
2021/12/12 06:28:41;;;;;;;55.35;25.58;;;;;;;;;;2060153;28;20080;-78
2021/12/12 06:30:01;;;;;;;60.88;26.98;;;;;;;;;;2069404;28;20030;-78
2021/12/12 06:31:20;;;;;;;55.67;27.13;;;;;;;;;;2065948;28;20153;-78
2021/12/12 06:32:39;;;;;;;55.70;25.95;;;;;;;;;;2063126;28;20034;-78
2021/12/12 06:33:58;;;;;;;56.83;27.25;;;;;;;;;;2068591;28;20038;-78
2021/12/12 06:35:18;;;;;;;59.95;26.42;;;;;;;;;;2063497;28;20431;-78
2021/12/12 06:36:38;;;;;;;60.22;26.00;;;;;;;;;;2068163;28;20046;-78
2021/12/12 06:38:00;;;;;;;54.65;25.30;;;;;;;;;;2071230;28;20046;-78
2021/12/12 06:39:20;;;;;;;53.97;25.40;;;;;;;;;;2062337;28;20038;-78
2021/12/12 06:40:39;;;;;;;57.72;26.17;;;;;;;;;;2059580;28;20380;-78
2021/12/12 06:41:58;;;;;;;56.95;26.52;;;;;;;;;;2061508;28;20628;-77
2021/12/12 06:43:19;;;;;;;59.13;26.13;;;;;;;;;;2062991;28;20125;-78
2021/12/12 06:44:39;;;;;;;58.58;26.40;;;;;;;;;;2063327;28;20030;-78
2021/12/12 06:45:59;;;;;;;58.42;25.63;;;;;;;;;;2062851;28;20039;-78
2021/12/12 06:47:18;;;;;;;60.92;25.48;;;;;;;;;;2061409;28;20113;-78
2021/12/12 06:48:39;;;;;;;60.65;27.73;;;;;;;;;;2059804;28;22076;-78
2021/12/12 06:49:59;;;;;;;58.33;26.30;;;;;;;;;;2059974;28;20023;-77
2021/12/12 06:51:18;;;;;;;60.25;27.98;;;;;;;;;;2059620;28;20467;-79
2021/12/12 06:52:37;;;;;;;65.57;27.77;;;;;;;;;;2068479;28;20053;-76
2021/12/12 06:53:56;;;;;;;60.97;26.85;;;;;;;;;;2063845;28;20507;-78
2021/12/12 06:55:15;;;;;;;70.90;29.52;;;;;;;;;;2068889;28;20122;-78
2021/12/12 06:56:35;;;;;;;62.92;27.40;;;;;;;;;;2062562;28;20113;-79
2021/12/12 06:57:54;;;;;;;69.05;28.30;;;;;;;;;;2060606;28;20148;-78
2021/12/12 06:59:14;;;;;;;64.63;28.77;;;;;;;;;;2060603;28;20101;-77
2021/12/12 07:00:33;;;;;;;68.45;28.80;;;;;;;;;;2066837;28;20034;-77
2021/12/12 07:01:53;;;;;;;59.35;27.00;;;;;;;;;;2069756;28;20459;-77
2021/12/12 07:03:13;;;;;;;62.38;27.02;;;;;;;;;;2063652;28;20034;-78
2021/12/12 07:04:32;;;;;;;61.85;27.00;;;;;;;;;;2058190;28;20038;-76
2021/12/12 07:05:51;;;;;;;67.63;27.50;;;;;;;;;;2066162;28;20026;-78
2021/12/12 07:07:12;;;;;;;64.15;27.33;;;;;;;;;;2063885;28;20498;-77
2021/12/12 07:08:31;;;;;;;64.57;27.85;;;;;;;;;;2068447;28;20026;-77
2021/12/12 07:09:51;;;;;;;63.78;27.70;;;;;;;;;;2066127;28;20030;-78
2021/12/12 07:11:10;;;;;;;74.22;28.85;;;;;;;;;;2059145;28;20644;-77
2021/12/12 07:12:29;;;;;;;72.20;27.90;;;;;;;;;;2059134;28;20038;-77
2021/12/12 07:13:49;;;;;;;57.65;26.88;;;;;;;;;;2060047;28;20450;-78
2021/12/12 07:15:10;;;;;;;68.22;28.10;;;;;;;;;;2059028;28;20037;-77
2021/12/12 07:16:29;;;;;;;70.05;27.98;;;;;;;;;;2068539;28;21582;-77
2021/12/12 07:17:48;;;;;;;68.63;26.33;;;;;;;;;;2061862;28;20042;-78
2021/12/12 07:19:07;;;;;;;64.00;26.67;;;;;;;;;;2059886;28;20475;-78
2021/12/12 07:20:26;;;;;;;62.85;26.95;;;;;;;;;;2061717;28;20038;-76
2021/12/12 07:21:46;;;;;;;68.05;28.17;;;;;;;;;;2068714;28;20042;-77
2021/12/12 07:23:06;;;;;;;66.93;26.80;;;;;;;;;;2064226;28;20026;-78
2021/12/12 07:24:25;;;;;;;67.82;27.23;;;;;;;;;;2061835;28;20041;-77
2021/12/12 07:25:45;;;;;;;72.10;28.55;;;;;;;;;;2063883;28;20399;-77
2021/12/12 07:27:05;;;;;;;61.17;25.85;;;;;;;;;;2064918;28;20054;-77
2021/12/12 07:28:25;;;;;;;67.10;26.40;;;;;;;;;;2061911;28;20042;-80
2021/12/12 07:29:44;;;;;;;63.85;26.60;;;;;;;;;;2059887;28;20030;-78
2021/12/12 07:31:06;;;;;;;66.53;27.23;;;;;;;;;;2062058;28;20051;-77
2021/12/12 07:32:25;;;;;;;60.70;26.52;;;;;;;;;;2069921;28;20034;-77
2021/12/12 07:33:47;;;;;;;67.57;28.02;;;;;;;;;;2065256;28;20030;-79
2021/12/12 07:35:08;;;;;;;68.00;25.67;;;;;;;;;;2062554;28;20042;-78
2021/12/12 07:36:30;;;;;;;61.03;27.10;;;;;;;;;;2062248;28;20042;-78
2021/12/12 07:37:49;;;;;;;65.72;27.25;;;;;;;;;;2064383;28;20043;-78
2021/12/12 07:39:09;;;;;;;69.57;27.83;;;;;;;;;;2064703;28;20038;-78
2021/12/12 07:40:28;;;;;;;72.68;28.00;;;;;;;;;;2069855;28;20038;-79
2021/12/12 07:41:47;;;;;;;65.82;28.02;;;;;;;;;;2071590;28;20034;-77
2021/12/12 07:43:07;;;;;;;75.03;28.75;;;;;;;;;;2065343;28;20034;-77
2021/12/12 07:44:28;;;;;;;60.33;27.40;;;;;;;;;;2070593;28;20037;-77
2021/12/12 07:45:47;;;;;;;73.90;29.13;;;;;;;;;;2064934;28;20030;-76
2021/12/12 07:47:07;;;;;;;70.10;28.83;;;;;;;;;;2061274;28;20026;-78
2021/12/12 07:48:26;;;;;;;70.78;27.45;;;;;;;;;;2069223;28;20034;-79
2021/12/12 07:49:46;;;;;;;66.72;28.27;;;;;;;;;;2067523;28;20026;-78
2021/12/12 07:51:06;;;;;;;60.88;27.02;;;;;;;;;;2061031;28;20034;-78
2021/12/12 07:52:27;;;;;;;66.03;27.90;;;;;;;;;;2069675;28;20037;-77
2021/12/12 07:53:49;;;;;;;66.32;28.45;;;;;;;;;;2072303;28;20033;-78
2021/12/12 07:55:09;;;;;;;75.78;28.42;;;;;;;;;;2064564;28;20105;-78
2021/12/12 07:56:29;;;;;;;71.00;26.85;;;;;;;;;;2061633;28;20022;-77
2021/12/12 07:57:48;;;;;;;72.65;28.35;;;;;;;;;;2061142;28;20027;-77
2021/12/12 07:59:07;;;;;;;71.10;28.05;;;;;;;;;;2061592;28;20023;-78
2021/12/12 08:00:27;;;;;;;67.20;27.08;;;;;;;;;;2063875;28;20027;-78
2021/12/12 08:01:47;;;;;;;69.95;28.70;;;;;;;;;;2064638;28;20038;-78
2021/12/12 08:03:07;;;;;;;62.50;27.65;;;;;;;;;;2065262;28;20031;-78
2021/12/12 08:04:28;;;;;;;66.05;27.92;;;;;;;;;;2064789;28;20121;-77
2021/12/12 08:05:46;;;;;;;66.05;26.15;;;;;;;;;;2068401;28;20522;-77
2021/12/12 08:07:10;;;;;;;59.58;27.52;;;;;;;;;;2062922;28;20034;-77
2021/12/12 08:08:30;;;;;;;65.82;27.45;;;;;;;;;;2070592;28;20037;-77
2021/12/12 08:09:49;;;;;;;58.88;25.63;;;;;;;;;;2072362;28;20033;-77
2021/12/12 08:11:08;;;;;;;65.43;26.50;;;;;;;;;;2064897;28;20034;-79
2021/12/12 08:12:28;;;;;;;67.82;27.50;;;;;;;;;;2064598;28;20101;-79
2021/12/12 08:13:48;;;;;;;61.97;27.48;;;;;;;;;;2063922;28;20043;-77